createdAt,value
2018-04-22T00:00:43.565Z,6.7
2018-04-22T00:01:33.361Z,6.7
2018-04-22T00:02:23.687Z,6.7
2018-04-22T00:03:13.780Z,6.7
2018-04-22T00:04:03.826Z,6.6
2018-04-22T00:04:54.044Z,6.6
2018-04-22T00:05:43.944Z,6.6
2018-04-22T00:06:34.018Z,6.6
2018-04-22T00:07:23.866Z,6.6
2018-04-22T00:08:14.156Z,6.5
2018-04-22T00:09:04.200Z,6.5
2018-04-22T00:09:54.282Z,6.5
2018-04-22T00:10:44.331Z,6.4
2018-04-22T00:11:34.402Z,6.4
2018-04-22T00:12:24.470Z,6.4
2018-04-22T00:13:14.540Z,6.4
2018-04-22T00:14:04.579Z,6.4
2018-04-22T00:14:54.637Z,6.4
2018-04-22T00:15:44.711Z,6.3
2018-04-22T00:16:34.773Z,6.3
2018-04-22T00:17:24.269Z,6.3
2018-04-22T00:18:14.894Z,6.3
2018-04-22T00:19:04.963Z,6.3
2018-04-22T00:19:55.022Z,6.3
2018-04-22T00:20:44.802Z,6.3
2018-04-22T00:21:35.163Z,6.2
2018-04-22T00:22:24.939Z,6.2
2018-04-22T00:23:15.269Z,6.2
2018-04-22T00:24:05.336Z,6.1
2018-04-22T00:24:55.406Z,6.1
2018-04-22T00:25:45.469Z,6.1
2018-04-22T00:26:35.536Z,6.1
2018-04-22T00:27:25.610Z,6.1
2018-04-22T00:28:15.673Z,6.1
2018-04-22T00:29:05.451Z,6.1
2018-04-22T00:29:55.799Z,6
2018-04-22T00:30:45.873Z,6
2018-04-22T00:31:35.638Z,6
2018-04-22T00:32:25.976Z,6
2018-04-22T00:33:16.044Z,5.9
2018-04-22T00:34:06.103Z,5.9
2018-04-22T00:34:55.922Z,5.9
2018-04-22T00:35:46.246Z,5.9
2018-04-22T00:36:36.295Z,5.9
2018-04-22T00:37:26.361Z,5.9
2018-04-22T00:38:16.424Z,5.8
2018-04-22T00:39:06.485Z,5.8
2018-04-22T00:39:56.565Z,5.8
2018-04-22T00:40:46.629Z,5.8
2018-04-22T00:41:36.391Z,5.8
2018-04-22T00:42:26.468Z,5.8
2018-04-22T00:43:16.536Z,5.8
2018-04-22T00:44:06.591Z,5.7
2018-04-22T00:44:56.931Z,5.7
2018-04-22T00:45:46.761Z,5.7
2018-04-22T00:46:37.064Z,5.6
2018-04-22T00:47:27.116Z,5.6
2018-04-22T00:48:17.191Z,5.6
2018-04-22T00:49:07.251Z,5.6
2018-04-22T00:49:57.312Z,5.6
2018-04-22T00:50:47.386Z,5.6
2018-04-22T00:51:37.440Z,5.6
2018-04-22T00:52:27.513Z,5.6
2018-04-22T00:53:17.563Z,5.5
2018-04-22T00:54:07.348Z,5.5
2018-04-22T00:54:57.690Z,5.5
2018-04-22T00:55:47.483Z,5.4
2018-04-22T00:56:37.823Z,5.4
2018-04-22T00:57:27.900Z,5.4
2018-04-22T00:58:17.942Z,5.4
2018-04-22T00:59:08.018Z,5.4
2018-04-22T00:59:58.085Z,5.4
2018-04-22T01:00:48.135Z,5.4
2018-04-22T01:01:38.201Z,5.4
2018-04-22T01:02:28.264Z,5.3
2018-04-22T01:03:18.320Z,5.3
2018-04-22T01:04:08.448Z,5.3
2018-04-22T01:04:58.462Z,5.3
2018-04-22T01:05:48.235Z,5.3
2018-04-22T01:06:38.593Z,5.3
2018-04-22T01:07:28.363Z,5.3
2018-04-22T01:08:18.714Z,5.3
2018-04-22T01:09:08.783Z,5.3
2018-04-22T01:09:58.843Z,5.3
2018-04-22T01:10:48.923Z,5.2
2018-04-22T01:11:38.967Z,5.2
2018-04-22T01:12:29.022Z,5.2
2018-04-22T01:13:19.083Z,5.1
2018-04-22T01:14:09.151Z,5.1
2018-04-22T01:14:59.220Z,5.1
2018-04-22T01:15:49.277Z,5.1
2018-04-22T01:16:39.358Z,5.1
2018-04-22T01:17:29.119Z,5.1
2018-04-22T01:18:19.470Z,5.1
2018-04-22T01:19:09.529Z,5.1
2018-04-22T01:19:59.595Z,5
2018-04-22T01:20:49.655Z,5
2018-04-22T01:21:39.739Z,5
2018-04-22T01:22:29.793Z,5
2018-04-22T01:23:19.571Z,5
2018-04-22T01:24:09.631Z,5
2018-04-22T01:24:59.978Z,4.9
2018-04-22T01:25:50.054Z,4.9
2018-04-22T01:26:39.841Z,4.9
2018-04-22T01:27:29.882Z,4.9
2018-04-22T01:28:20.232Z,4.9
2018-04-22T01:29:10.296Z,4.9
2018-04-22T01:30:00.091Z,4.9
2018-04-22T01:30:50.420Z,4.9
2018-04-22T01:31:40.497Z,4.9
2018-04-22T01:32:30.280Z,4.9
2018-04-22T01:33:20.357Z,4.9
2018-04-22T01:34:10.680Z,4.8
2018-04-22T01:35:00.741Z,4.9
2018-04-22T01:35:50.804Z,4.8
2018-04-22T01:36:40.884Z,4.8
2018-04-22T01:37:30.651Z,4.8
2018-04-22T01:38:20.724Z,4.8
2018-04-22T01:39:11.048Z,4.8
2018-04-22T01:40:01.124Z,4.8
2018-04-22T01:40:51.193Z,4.8
2018-04-22T01:41:41.251Z,4.8
2018-04-22T01:42:31.034Z,4.8
2018-04-22T01:43:21.376Z,4.8
2018-04-22T01:44:11.434Z,4.8
2018-04-22T01:45:01.495Z,4.8
2018-04-22T01:45:51.558Z,4.8
2018-04-22T01:46:41.624Z,4.7
2018-04-22T01:47:31.684Z,4.7
2018-04-22T01:48:21.758Z,4.7
2018-04-22T01:49:11.823Z,4.7
2018-04-22T01:50:01.907Z,4.7
2018-04-22T01:50:51.940Z,4.7
2018-04-22T01:51:41.739Z,4.7
2018-04-22T01:52:32.071Z,4.7
2018-04-22T01:53:22.139Z,4.7
2018-04-22T01:54:11.922Z,4.7
2018-04-22T01:55:01.989Z,4.7
2018-04-22T01:55:52.331Z,4.6
2018-04-22T01:56:42.390Z,4.6
2018-04-22T01:57:32.451Z,4.6
2018-04-22T01:58:22.241Z,4.6
2018-04-22T01:59:12.310Z,4.6
2018-04-22T02:00:02.663Z,4.6
2018-04-22T02:00:52.718Z,4.6
2018-04-22T02:01:42.769Z,4.6
2018-04-22T02:02:32.824Z,4.6
2018-04-22T02:03:22.907Z,4.6
2018-04-22T02:04:12.970Z,4.6
2018-04-22T02:05:03.035Z,4.6
2018-04-22T02:05:52.822Z,4.5
2018-04-22T02:06:43.149Z,4.6
2018-04-22T02:07:33.217Z,4.6
2018-04-22T02:08:23.279Z,4.5
2018-04-22T02:09:13.351Z,4.5
2018-04-22T02:10:03.123Z,4.5
2018-04-22T02:10:53.482Z,4.5
2018-04-22T02:11:43.525Z,4.5
2018-04-22T02:12:33.320Z,4.4
2018-04-22T02:13:23.658Z,4.5
2018-04-22T02:14:13.741Z,4.4
2018-04-22T02:15:03.797Z,4.4
2018-04-22T02:15:53.851Z,4.4
2018-04-22T02:16:43.912Z,4.4
2018-04-22T02:17:33.984Z,4.4
2018-04-22T02:18:24.028Z,4.4
2018-04-22T02:19:14.094Z,4.4
2018-04-22T02:20:04.164Z,4.4
2018-04-22T02:20:54.219Z,4.4
2018-04-22T02:21:44.024Z,4.4
2018-04-22T02:22:34.351Z,4.4
2018-04-22T02:23:24.409Z,4.4
2018-04-22T02:24:14.475Z,4.4
2018-04-22T02:25:04.253Z,4.4
2018-04-22T02:25:54.606Z,4.4
2018-04-22T02:26:44.704Z,4.4
2018-04-22T02:27:34.740Z,4.4
2018-04-22T02:28:24.237Z,4.4
2018-04-22T02:29:14.576Z,4.3
2018-04-22T02:30:04.939Z,4.3
2018-04-22T02:30:54.995Z,4.3
2018-04-22T02:31:45.053Z,4.3
2018-04-22T02:32:35.130Z,4.3
2018-04-22T02:33:25.174Z,4.3
2018-04-22T02:34:15.247Z,4.3
2018-04-22T02:35:05.321Z,4.3
2018-04-22T02:35:55.372Z,4.3
2018-04-22T02:36:45.145Z,4.3
2018-04-22T02:37:35.218Z,4.3
2018-04-22T02:38:25.602Z,4.3
2018-04-22T02:39:15.633Z,4.2
2018-04-22T02:40:05.680Z,4.2
2018-04-22T02:40:55.735Z,4.2
2018-04-22T02:41:45.825Z,4.2
2018-04-22T02:42:35.870Z,4.2
2018-04-22T02:43:25.945Z,4.1
2018-04-22T02:44:15.996Z,4.2
2018-04-22T02:45:06.061Z,4.1
2018-04-22T02:45:56.158Z,4.1
2018-04-22T02:46:46.183Z,4.1
2018-04-22T02:47:35.970Z,4.1
2018-04-22T02:48:26.332Z,4.1
2018-04-22T02:49:16.380Z,4.1
2018-04-22T02:50:06.471Z,4.1
2018-04-22T02:50:56.548Z,4.1
2018-04-22T02:51:46.561Z,4.1
2018-04-22T02:52:36.633Z,4.1
2018-04-22T02:53:26.139Z,4.1
2018-04-22T02:54:16.472Z,4
2018-04-22T02:55:06.836Z,4
2018-04-22T02:55:56.894Z,4
2018-04-22T02:56:46.958Z,4
2018-04-22T02:57:37.013Z,4
2018-04-22T02:58:27.081Z,3.9
2018-04-22T02:59:17.133Z,3.9
2018-04-22T03:00:07.210Z,3.9
2018-04-22T03:00:57.279Z,3.9
2018-04-22T03:01:47.355Z,3.9
2018-04-22T03:02:37.108Z,3.9
2018-04-22T03:03:27.174Z,3.9
2018-04-22T03:04:17.515Z,3.9
2018-04-22T03:05:07.579Z,3.9
2018-04-22T03:05:57.371Z,3.9
2018-04-22T03:06:47.716Z,3.9
2018-04-22T03:07:37.508Z,3.9
2018-04-22T03:08:27.832Z,3.8
2018-04-22T03:09:17.896Z,3.9
2018-04-22T03:10:07.958Z,3.8
2018-04-22T03:10:57.751Z,3.8
2018-04-22T03:11:48.135Z,3.8
2018-04-22T03:12:38.171Z,3.8
2018-04-22T03:13:28.209Z,3.8
2018-04-22T03:14:18.002Z,3.8
2018-04-22T03:15:08.340Z,3.8
2018-04-22T03:15:58.396Z,3.8
2018-04-22T03:16:48.189Z,3.8
2018-04-22T03:17:38.551Z,3.8
2018-04-22T03:18:28.588Z,3.8
2018-04-22T03:19:18.659Z,3.8
2018-04-22T03:20:08.723Z,3.7
2018-04-22T03:20:58.489Z,3.8
2018-04-22T03:21:48.570Z,3.8
2018-04-22T03:22:38.917Z,3.7
2018-04-22T03:23:28.683Z,3.7
2018-04-22T03:24:19.030Z,3.7
2018-04-22T03:25:09.303Z,3.7
2018-04-22T03:25:59.161Z,3.7
2018-04-22T03:26:49.224Z,3.7
2018-04-22T03:27:39.015Z,3.7
2018-04-22T03:28:29.079Z,3.7
2018-04-22T03:29:19.427Z,3.7
2018-04-22T03:30:09.489Z,3.7
2018-04-22T03:30:59.566Z,3.6
2018-04-22T03:31:49.616Z,3.6
2018-04-22T03:32:39.660Z,3.6
2018-04-22T03:33:29.733Z,3.6
2018-04-22T03:34:19.505Z,3.6
2018-04-22T03:35:09.859Z,3.6
2018-04-22T03:35:59.935Z,3.6
2018-04-22T03:36:50.001Z,3.6
2018-04-22T03:37:40.058Z,3.6
2018-04-22T03:38:30.105Z,3.6
2018-04-22T03:39:20.165Z,3.6
2018-04-22T03:40:10.243Z,3.6
2018-04-22T03:41:00.308Z,3.6
2018-04-22T03:41:50.354Z,3.6
2018-04-22T03:42:40.156Z,3.5
2018-04-22T03:43:30.485Z,3.5
2018-04-22T03:44:20.555Z,3.5
2018-04-22T03:45:10.612Z,3.5
2018-04-22T03:46:00.689Z,3.5
2018-04-22T03:46:50.742Z,3.5
2018-04-22T03:47:40.515Z,3.5
2018-04-22T03:48:30.595Z,3.5
2018-04-22T03:49:20.928Z,3.4
2018-04-22T03:50:10.710Z,3.4
2018-04-22T03:51:01.056Z,3.4
2018-04-22T03:51:51.139Z,3.4
2018-04-22T03:52:41.201Z,3.4
2018-04-22T03:53:30.980Z,3.4
2018-04-22T03:54:21.313Z,3.4
2018-04-22T03:55:11.379Z,3.4
2018-04-22T03:56:01.461Z,3.4
2018-04-22T03:56:50.938Z,3.4
2018-04-22T03:57:41.562Z,3.4
2018-04-22T03:58:31.656Z,3.4
2018-04-22T03:59:21.421Z,3.4
2018-04-22T04:00:11.752Z,3.4
2018-04-22T04:01:02.055Z,3.4
2018-04-22T04:01:51.898Z,3.4
2018-04-22T04:02:41.947Z,3.4
2018-04-22T04:03:32.004Z,3.4
2018-04-22T04:04:22.085Z,3.4
2018-04-22T04:05:12.145Z,3.4
2018-04-22T04:06:02.209Z,3.4
2018-04-22T04:06:52.268Z,3.4
2018-04-22T04:07:42.321Z,3.4
2018-04-22T04:08:32.405Z,3.4
2018-04-22T04:09:22.174Z,3.4
2018-04-22T04:10:12.512Z,3.4
2018-04-22T04:11:02.586Z,3.4
2018-04-22T04:11:52.639Z,3.4
2018-04-22T04:12:42.714Z,3.4
2018-04-22T04:13:32.762Z,3.4
2018-04-22T04:14:22.822Z,3.4
2018-04-22T04:15:12.887Z,3.4
2018-04-22T04:16:02.681Z,3.5
2018-04-22T04:16:53.024Z,3.5
2018-04-22T04:17:43.095Z,3.5
2018-04-22T04:18:32.859Z,3.5
2018-04-22T04:19:23.155Z,3.5
2018-04-22T04:20:13.274Z,3.6
2018-04-22T04:21:03.348Z,3.6
2018-04-22T04:21:53.398Z,3.6
2018-04-22T04:22:43.452Z,3.6
2018-04-22T04:23:33.262Z,3.6
2018-04-22T04:24:23.594Z,3.6
2018-04-22T04:25:13.663Z,3.6
2018-04-22T04:26:03.722Z,3.6
2018-04-22T04:26:53.794Z,3.7
2018-04-22T04:27:43.889Z,3.7
2018-04-22T04:28:33.944Z,3.7
2018-04-22T04:29:23.986Z,3.8
2018-04-22T04:30:14.033Z,3.8
2018-04-22T04:31:04.094Z,3.8
2018-04-22T04:31:54.153Z,3.8
2018-04-22T04:32:44.225Z,3.8
2018-04-22T04:33:34.278Z,3.8
2018-04-22T04:34:24.355Z,3.9
2018-04-22T04:35:14.427Z,3.9
2018-04-22T04:36:04.557Z,3.9
2018-04-22T04:36:54.267Z,4
2018-04-22T04:37:44.326Z,4
2018-04-22T04:38:34.666Z,4.1
2018-04-22T04:39:24.724Z,4.1
2018-04-22T04:40:15.001Z,4.1
2018-04-22T04:41:04.578Z,4.2
2018-04-22T04:41:54.644Z,4.3
2018-04-22T04:42:44.988Z,4.3
2018-04-22T04:43:35.061Z,4.3
2018-04-22T04:44:25.116Z,4.4
2018-04-22T04:45:15.168Z,4.4
2018-04-22T04:46:05.235Z,4.5
2018-04-22T04:46:55.292Z,4.6
2018-04-22T04:47:45.358Z,4.6
2018-04-22T04:48:35.415Z,4.7
2018-04-22T04:49:25.250Z,4.8
2018-04-22T04:50:15.557Z,4.8
2018-04-22T04:51:05.618Z,4.9
2018-04-22T04:51:55.681Z,5
2018-04-22T04:52:45.753Z,5.1
2018-04-22T04:53:35.804Z,5.2
2018-04-22T04:54:26.063Z,5.3
2018-04-22T04:55:15.924Z,5.3
2018-04-22T04:56:06.003Z,5.4
2018-04-22T04:56:56.061Z,5.5
2018-04-22T04:57:46.115Z,5.6
2018-04-22T04:58:36.179Z,5.7
2018-04-22T04:59:26.247Z,5.8
2018-04-22T05:00:16.459Z,5.9
2018-04-22T05:01:06.367Z,6
2018-04-22T05:01:56.447Z,6.1
2018-04-22T05:02:46.512Z,6.3
2018-04-22T05:03:36.577Z,6.4
2018-04-22T05:04:26.633Z,6.5
2018-04-22T05:05:16.700Z,6.6
2018-04-22T05:06:06.744Z,6.8
2018-04-22T05:06:56.811Z,6.9
2018-04-22T05:07:46.591Z,7
2018-04-22T05:08:36.936Z,7.2
2018-04-22T05:09:26.997Z,7.3
2018-04-22T05:10:17.066Z,7.4
2018-04-22T05:11:07.131Z,7.6
2018-04-22T05:11:56.949Z,7.8
2018-04-22T05:12:46.971Z,7.9
2018-04-22T05:13:37.313Z,8.1
2018-04-22T05:14:27.104Z,8.2
2018-04-22T05:15:17.165Z,8.4
2018-04-22T05:16:07.225Z,8.6
2018-04-22T05:16:57.289Z,8.8
2018-04-22T05:17:47.646Z,8.9
2018-04-22T05:18:37.723Z,9.1
2018-04-22T05:19:27.773Z,9.3
2018-04-22T05:20:17.817Z,9.5
2018-04-22T05:21:07.914Z,9.8
2018-04-22T05:21:57.948Z,9.9
2018-04-22T05:22:48.020Z,10.1
2018-04-22T05:23:38.072Z,10.3
2018-04-22T05:24:28.134Z,10.6
2018-04-22T05:25:18.207Z,10.8
2018-04-22T05:26:08.276Z,11
2018-04-22T05:26:58.067Z,11.3
2018-04-22T05:27:48.385Z,11.5
2018-04-22T05:28:38.469Z,11.8
2018-04-22T05:29:28.524Z,11.9
2018-04-22T05:30:18.580Z,12.2
2018-04-22T05:31:08.757Z,12.4
2018-04-22T05:31:58.717Z,12.8
2018-04-22T05:32:48.769Z,12.9
2018-04-22T05:33:38.841Z,13.3
2018-04-22T05:34:28.905Z,13.5
2018-04-22T05:35:18.962Z,13.8
2018-04-22T05:36:09.039Z,14.1
2018-04-22T05:36:59.100Z,14.3
2018-04-22T05:37:49.150Z,14.6
2018-04-22T05:38:39.204Z,14.9
2018-04-22T05:39:28.996Z,15.2
2018-04-22T05:40:19.339Z,15.4
2018-04-22T05:41:09.121Z,15.8
2018-04-22T05:41:59.468Z,16.1
2018-04-22T05:42:49.531Z,11.1
2018-04-22T05:43:39.599Z,23.3
2018-04-22T05:44:29.094Z,31.2
2018-04-22T05:45:19.716Z,31.2
2018-04-22T05:46:09.779Z,31.4
2018-04-22T05:46:59.840Z,31.4
2018-04-22T05:47:49.927Z,31.4
2018-04-22T05:48:39.985Z,31.3
2018-04-22T05:49:30.042Z,31.1
2018-04-22T05:50:20.096Z,30.9
2018-04-22T05:51:09.882Z,30.8
2018-04-22T05:52:00.244Z,30.6
2018-04-22T05:52:50.009Z,30.6
2018-04-22T05:53:40.344Z,30.5
2018-04-22T05:54:30.418Z,30.4
2018-04-22T05:55:20.478Z,30.3
2018-04-22T05:56:10.538Z,30.3
2018-04-22T05:57:00.324Z,30.2
2018-04-22T05:57:50.682Z,30.1
2018-04-22T05:58:40.727Z,30.1
2018-04-22T05:59:30.792Z,30.1
2018-04-22T06:00:20.867Z,31.1
2018-04-22T06:01:10.647Z,32.9
2018-04-22T06:02:00.993Z,35.5
2018-04-22T06:02:51.056Z,37.4
2018-04-22T06:03:41.106Z,38.9
2018-04-22T06:04:30.893Z,38.9
2018-04-22T06:05:20.955Z,38.4
2018-04-22T06:06:11.026Z,38.3
2018-04-22T06:07:01.364Z,38.5
2018-04-22T06:07:51.432Z,38.9
2018-04-22T06:08:41.280Z,39.3
2018-04-22T06:09:31.276Z,39.5
2018-04-22T06:10:21.614Z,39.5
2018-04-22T06:11:11.681Z,39.6
2018-04-22T06:12:01.757Z,39.7
2018-04-22T06:12:51.801Z,39.9
2018-04-22T06:13:41.861Z,40
2018-04-22T06:14:31.649Z,40.2
2018-04-22T06:15:22.004Z,40.4
2018-04-22T06:16:12.048Z,40.5
2018-04-22T06:17:02.136Z,40.6
2018-04-22T06:17:51.900Z,40.8
2018-04-22T06:18:42.246Z,40.9
2018-04-22T06:19:32.307Z,41.1
2018-04-22T06:20:22.386Z,41.3
2018-04-22T06:21:12.438Z,41.4
2018-04-22T06:22:02.507Z,41.5
2018-04-22T06:22:52.619Z,41.7
2018-04-22T06:23:42.623Z,41.8
2018-04-22T06:24:32.690Z,41.9
2018-04-22T06:25:22.766Z,42.1
2018-04-22T06:26:12.808Z,42.3
2018-04-22T06:27:02.876Z,42.4
2018-04-22T06:27:52.934Z,42.6
2018-04-22T06:28:42.999Z,42.7
2018-04-22T06:29:33.075Z,42.8
2018-04-22T06:30:23.136Z,43
2018-04-22T06:31:13.200Z,43.1
2018-04-22T06:32:03.251Z,43.3
2018-04-22T06:33:43.107Z,43.6
2018-04-22T06:34:33.156Z,43.7
2018-04-22T06:35:23.507Z,43.8
2018-04-22T06:36:13.589Z,43.9
2018-04-22T06:37:03.644Z,44.1
2018-04-22T06:37:53.706Z,44.3
2018-04-22T06:38:43.763Z,44.4
2018-04-22T06:39:33.555Z,44.6
2018-04-22T06:40:23.911Z,44.7
2018-04-22T06:41:13.972Z,44.8
2018-04-22T06:42:04.020Z,44.9
2018-04-22T06:42:54.081Z,45.1
2018-04-22T06:43:44.140Z,45.3
2018-04-22T06:44:34.205Z,45.2
2018-04-22T06:45:24.273Z,44.9
2018-04-22T06:46:14.065Z,44.6
2018-04-22T06:47:04.110Z,85
2018-04-22T06:47:54.191Z,44.8
2018-04-22T06:48:44.537Z,45
2018-04-22T06:49:34.592Z,45.1
2018-04-22T06:50:24.651Z,45.3
2018-04-22T06:51:14.441Z,45.3
2018-04-22T06:52:04.503Z,45.4
2018-04-22T06:52:54.851Z,45.6
2018-04-22T06:53:44.635Z,45.8
2018-04-22T06:54:34.981Z,45.9
2018-04-22T06:55:25.048Z,46.1
2018-04-22T06:56:15.102Z,46.3
2018-04-22T06:57:05.165Z,46.4
2018-04-22T06:57:55.247Z,46.6
2018-04-22T06:58:45.434Z,46.6
2018-04-22T06:59:35.360Z,46.2
2018-04-22T07:00:25.440Z,45.6
2018-04-22T07:01:15.215Z,45.3
2018-04-22T07:02:05.269Z,45.2
2018-04-22T07:02:55.344Z,45.1
2018-04-22T07:03:45.694Z,44.9
2018-04-22T07:04:35.755Z,44.9
2018-04-22T07:05:25.630Z,44.9
2018-04-22T07:06:15.596Z,45.1
2018-04-22T07:07:05.953Z,45.3
2018-04-22T07:07:56.014Z,45.4
2018-04-22T07:08:46.064Z,45.6
2018-04-22T07:09:35.856Z,45.8
2018-04-22T07:10:25.911Z,45.9
2018-04-22T07:11:16.261Z,46.2
2018-04-22T07:12:06.327Z,46.4
2018-04-22T07:12:56.413Z,46.6
2018-04-22T07:13:46.467Z,46.8
2018-04-22T07:14:36.230Z,47
2018-04-22T07:15:26.598Z,47.3
2018-04-22T07:16:16.658Z,47.4
2018-04-22T07:17:06.740Z,47.7
2018-04-22T07:17:56.778Z,47.9
2018-04-22T07:18:46.839Z,48.1
2018-04-22T07:19:36.916Z,48.3
2018-04-22T07:20:26.977Z,48.4
2018-04-22T07:21:17.034Z,48.6
2018-04-22T07:22:07.105Z,48.8
2018-04-22T07:22:57.147Z,49
2018-04-22T07:23:47.209Z,49.2
2018-04-22T07:24:37.001Z,49.4
2018-04-22T07:25:27.342Z,49.6
2018-04-22T07:26:17.411Z,49.8
2018-04-22T07:27:07.198Z,49.9
2018-04-22T07:27:57.544Z,50.1
2018-04-22T07:28:47.616Z,50.3
2018-04-22T07:29:37.668Z,50.4
2018-04-22T07:30:27.472Z,50.6
2018-04-22T07:31:17.237Z,50.8
2018-04-22T07:32:07.600Z,50.9
2018-04-22T07:32:57.942Z,51.1
2018-04-22T07:33:47.710Z,51.3
2018-04-22T07:34:37.792Z,51.5
2018-04-22T07:35:27.921Z,51.6
2018-04-22T07:36:17.902Z,51.7
2018-04-22T07:37:07.969Z,51.1
2018-04-22T07:37:58.310Z,51.1
2018-04-22T07:38:48.094Z,51.3
2018-04-22T07:39:38.181Z,51.4
2018-04-22T07:40:28.228Z,51.7
2018-04-22T07:41:18.585Z,51.9
2018-04-22T07:42:08.631Z,52
2018-04-22T07:42:58.708Z,52.1
2018-04-22T07:43:48.764Z,52.3
2018-04-22T07:44:38.535Z,52.5
2018-04-22T07:45:28.905Z,52.6
2018-04-22T07:46:18.954Z,52.8
2018-04-22T07:47:09.018Z,53
2018-04-22T07:47:58.809Z,53.2
2018-04-22T07:48:48.888Z,53.4
2018-04-22T07:49:39.202Z,53.6
2018-04-22T07:50:29.274Z,53.8
2018-04-22T07:51:19.358Z,53.9
2018-04-22T07:52:09.401Z,54.1
2018-04-22T07:52:59.482Z,54.3
2018-04-22T07:53:49.252Z,54.4
2018-04-22T07:54:39.123Z,54.7
2018-04-22T07:55:29.677Z,54.9
2018-04-22T07:56:19.453Z,55
2018-04-22T07:57:09.786Z,55.2
2018-04-22T07:57:59.573Z,55.4
2018-04-22T07:58:49.921Z,55.5
2018-04-22T07:59:39.714Z,55.7
2018-04-22T08:00:30.044Z,55.8
2018-04-22T08:01:19.832Z,56
2018-04-22T08:02:09.899Z,56.2
2018-04-22T08:03:00.255Z,56.4
2018-04-22T08:03:50.312Z,56.6
2018-04-22T08:04:40.374Z,56.7
2018-04-22T08:05:30.430Z,56.4
2018-04-22T08:06:20.494Z,56.4
2018-04-22T08:07:10.566Z,56.4
2018-04-22T08:08:00.624Z,55.4
2018-04-22T08:08:50.695Z,54.9
2018-04-22T08:09:40.758Z,54.9
2018-04-22T08:10:30.821Z,55.2
2018-04-22T08:11:20.610Z,55.4
2018-04-22T08:12:10.951Z,55.6
2018-04-22T08:13:01.018Z,55.8
2018-04-22T08:13:51.075Z,55.9
2018-04-22T08:14:41.147Z,56.1
2018-04-22T08:15:30.937Z,56.3
2018-04-22T08:16:21.078Z,56.6
2018-04-22T08:17:11.340Z,56.8
2018-04-22T08:18:01.395Z,57
2018-04-22T08:18:51.461Z,57.3
2018-04-22T08:19:41.543Z,57.4
2018-04-22T08:20:31.038Z,57.6
2018-04-22T08:21:21.660Z,57.8
2018-04-22T08:22:11.737Z,58.1
2018-04-22T08:23:01.783Z,58.3
2018-04-22T08:23:51.567Z,58.4
2018-04-22T08:24:41.914Z,58.6
2018-04-22T08:25:31.990Z,58.8
2018-04-22T08:26:22.046Z,59
2018-04-22T08:27:12.136Z,59.2
2018-04-22T08:28:01.904Z,59.4
2018-04-22T08:28:52.265Z,59.5
2018-04-22T08:29:42.302Z,59.7
2018-04-22T08:30:32.370Z,59.9
2018-04-22T08:31:22.434Z,60.1
2018-04-22T08:32:12.496Z,60.2
2018-04-22T08:33:02.579Z,60.3
2018-04-22T08:33:52.687Z,60.5
2018-04-22T08:34:42.687Z,60.7
2018-04-22T08:35:32.751Z,60.8
2018-04-22T08:36:22.874Z,60.9
2018-04-22T08:37:12.891Z,61.1
2018-04-22T08:38:02.951Z,61.3
2018-04-22T08:38:53.005Z,61.4
2018-04-22T08:39:43.075Z,61.6
2018-04-22T08:40:32.867Z,61.8
2018-04-22T08:41:23.226Z,61.9
2018-04-22T08:42:13.279Z,62
2018-04-22T08:43:03.054Z,62.1
2018-04-22T08:43:53.448Z,62.3
2018-04-22T08:44:43.477Z,62.4
2018-04-22T08:45:33.252Z,62.5
2018-04-22T08:46:23.601Z,62.6
2018-04-22T08:47:13.657Z,62.8
2018-04-22T08:48:03.763Z,62.9
2018-04-22T08:48:53.792Z,63.1
2018-04-22T08:49:43.848Z,63.2
2018-04-22T08:50:33.935Z,63.3
2018-04-22T08:51:23.702Z,63.4
2018-04-22T08:52:13.768Z,63.6
2018-04-22T08:53:04.114Z,63.7
2018-04-22T08:53:54.184Z,63.8
2018-04-22T08:54:43.974Z,63.9
2018-04-22T08:55:34.307Z,64
2018-04-22T08:56:24.099Z,64.1
2018-04-22T08:57:14.441Z,64.2
2018-04-22T08:58:04.500Z,64.4
2018-04-22T08:58:54.563Z,64.5
2018-04-22T08:59:44.621Z,64.6
2018-04-22T09:00:34.704Z,64.6
2018-04-22T09:01:24.763Z,64.8
2018-04-22T09:02:14.816Z,64.8
2018-04-22T09:03:04.904Z,64.9
2018-04-22T09:03:54.964Z,65
2018-04-22T09:04:44.737Z,65.1
2018-04-22T09:05:35.093Z,65.2
2018-04-22T09:06:25.164Z,65.3
2018-04-22T09:07:15.220Z,65.3
2018-04-22T09:08:05.288Z,65.4
2018-04-22T09:08:55.339Z,65.6
2018-04-22T09:09:45.444Z,65.6
2018-04-22T09:10:35.477Z,65.8
2018-04-22T09:11:25.541Z,65.9
2018-04-22T09:12:15.596Z,65.9
2018-04-22T09:13:05.666Z,65.9
2018-04-22T09:13:55.726Z,66.1
2018-04-22T09:14:45.522Z,66.2
2018-04-22T09:15:35.860Z,66.3
2018-04-22T09:16:26.023Z,66.4
2018-04-22T09:17:15.989Z,66.4
2018-04-22T09:18:06.077Z,66.6
2018-04-22T09:18:56.133Z,66.7
2018-04-22T09:19:46.183Z,66.8
2018-04-22T09:20:35.973Z,66.8
2018-04-22T09:21:26.322Z,66.9
2018-04-22T09:22:16.378Z,67.1
2018-04-22T09:23:06.168Z,67.1
2018-04-22T09:23:56.518Z,67.2
2018-04-22T09:24:46.577Z,67.3
2018-04-22T09:25:36.073Z,67.3
2018-04-22T09:26:26.703Z,67.4
2018-04-22T09:27:16.777Z,67.6
2018-04-22T09:28:06.565Z,67.7
2018-04-22T09:28:56.890Z,67.8
2018-04-22T09:29:46.687Z,67.8
2018-04-22T09:30:37.027Z,67.9
2018-04-22T09:31:27.106Z,68
2018-04-22T09:32:16.889Z,68.1
2018-04-22T09:33:07.325Z,68.2
2018-04-22T09:33:57.290Z,68.3
2018-04-22T09:34:47.355Z,68.4
2018-04-22T09:35:37.426Z,68.5
2018-04-22T09:36:27.501Z,68.6
2018-04-22T09:37:17.543Z,68.7
2018-04-22T09:38:07.616Z,68.7
2018-04-22T09:38:57.672Z,68.8
2018-04-22T09:39:47.739Z,68.9
2018-04-22T09:40:37.805Z,69
2018-04-22T09:41:27.863Z,69.1
2018-04-22T09:42:17.938Z,69.1
2018-04-22T09:43:08.199Z,69.2
2018-04-22T09:43:58.067Z,69.3
2018-04-22T09:44:48.124Z,69.4
2018-04-22T09:45:38.189Z,69.4
2018-04-22T09:46:28.253Z,69.5
2018-04-22T09:47:18.328Z,69.6
2018-04-22T09:48:08.406Z,69.7
2018-04-22T09:48:58.455Z,69.8
2018-04-22T09:49:48.588Z,69.9
2018-04-22T09:50:38.584Z,69.9
2018-04-22T09:51:28.661Z,70
2018-04-22T09:52:18.713Z,70.1
2018-04-22T09:53:08.816Z,70.2
2018-04-22T09:53:58.557Z,70.3
2018-04-22T09:54:48.623Z,70.4
2018-04-22T09:55:39.097Z,70.4
2018-04-22T09:56:29.040Z,70.6
2018-04-22T09:57:18.821Z,70.6
2018-04-22T09:58:09.164Z,70.7
2018-04-22T09:58:58.966Z,70.8
2018-04-22T09:59:49.298Z,70.8
2018-04-22T10:00:39.367Z,70.9
2018-04-22T10:01:29.143Z,71
2018-04-22T10:02:19.527Z,71.1
2018-04-22T10:03:09.563Z,71.1
2018-04-22T10:03:59.348Z,71.2
2018-04-22T10:04:49.734Z,71.2
2018-04-22T10:05:39.750Z,71.3
2018-04-22T10:06:29.837Z,71.4
2018-04-22T10:07:19.878Z,71.4
2018-04-22T10:08:09.945Z,71.5
2018-04-22T10:09:00.009Z,71.6
2018-04-22T10:09:50.079Z,71.7
2018-04-22T10:10:40.143Z,71.8
2018-04-22T10:11:29.940Z,71.8
2018-04-22T10:12:20.276Z,71.9
2018-04-22T10:13:10.344Z,72
2018-04-22T10:14:00.400Z,72.1
2018-04-22T10:14:50.196Z,72.3
2018-04-22T10:15:40.539Z,72.3
2018-04-22T10:16:30.722Z,72.4
2018-04-22T10:17:20.663Z,72.4
2018-04-22T10:18:10.456Z,72.5
2018-04-22T10:19:00.518Z,72.5
2018-04-22T10:19:50.878Z,72
2018-04-22T10:20:40.936Z,71.9
2018-04-22T10:21:31.010Z,71.9
2018-04-22T10:22:21.057Z,72
2018-04-22T10:23:10.853Z,72.1
2018-04-22T10:24:01.176Z,72.2
2018-04-22T10:24:51.250Z,72.3
2018-04-22T10:25:41.314Z,72.4
2018-04-22T10:26:31.374Z,71.8
2018-04-22T10:27:21.448Z,71.6
2018-04-22T10:28:11.507Z,71.7
2018-04-22T10:29:01.291Z,71.8
2018-04-22T10:29:51.654Z,71.9
2018-04-22T10:30:41.702Z,72.1
2018-04-22T10:31:31.771Z,71.5
2018-04-22T10:32:21.834Z,70.6
2018-04-22T10:33:11.907Z,69.4
2018-04-22T10:34:01.967Z,69
2018-04-22T10:34:51.764Z,69.3
2018-04-22T10:35:42.095Z,69.6
2018-04-22T10:36:31.994Z,69.8
2018-04-22T10:37:22.244Z,69.9
2018-04-22T10:38:12.282Z,70.1
2018-04-22T10:39:02.365Z,70.3
2018-04-22T10:39:52.435Z,70.4
2018-04-22T10:40:42.486Z,70.6
2018-04-22T10:41:32.566Z,70.9
2018-04-22T10:42:22.614Z,71.1
2018-04-22T10:43:12.678Z,71.3
2018-04-22T10:44:02.766Z,71.4
2018-04-22T10:44:52.540Z,71.5
2018-04-22T10:45:42.593Z,71.7
2018-04-22T10:46:32.956Z,71.9
2018-04-22T10:47:22.723Z,72.1
2018-04-22T10:48:13.071Z,72.2
2018-04-22T10:49:03.153Z,72.4
2018-04-22T10:49:53.214Z,72.4
2018-04-22T10:50:43.258Z,72.6
2018-04-22T10:51:33.336Z,72.8
2018-04-22T10:52:23.392Z,72.4
2018-04-22T10:53:13.472Z,72.4
2018-04-22T10:54:03.582Z,72.5
2018-04-22T10:54:53.604Z,72.6
2018-04-22T10:55:43.654Z,72.4
2018-04-22T10:56:33.731Z,72.2
2018-04-22T10:57:23.515Z,72.3
2018-04-22T10:58:13.855Z,72.4
2018-04-22T10:59:03.990Z,72.5
2018-04-22T10:59:54.137Z,72.6
2018-04-22T11:00:44.048Z,72.8
2018-04-22T11:01:34.108Z,72.9
2018-04-22T11:02:24.172Z,73
2018-04-22T11:03:13.959Z,73.1
2018-04-22T11:04:04.325Z,72.5
2018-04-22T11:04:54.422Z,72.2
2018-04-22T11:05:44.432Z,72.3
2018-04-22T11:06:34.528Z,72.4
2018-04-22T11:07:24.572Z,71.6
2018-04-22T11:08:14.632Z,71.3
2018-04-22T11:09:04.712Z,71.4
2018-04-22T11:09:54.483Z,71.3
2018-04-22T11:10:44.544Z,71.5
2018-04-22T11:11:34.622Z,71.7
2018-04-22T11:12:24.961Z,71.8
2018-04-22T11:13:14.738Z,72
2018-04-22T11:14:05.096Z,72.1
2018-04-22T11:14:55.166Z,72.3
2018-04-22T11:15:44.944Z,72.4
2018-04-22T11:16:35.296Z,72.6
2018-04-22T11:17:25.355Z,72.8
2018-04-22T11:18:15.414Z,72.9
2018-04-22T11:19:05.504Z,73.1
2018-04-22T11:19:55.551Z,73.2
2018-04-22T11:20:45.603Z,73.4